Time;durP1;ratioP1;P1;durP2;ratioP2;P2;SDS_P1;SDS_P2;PMS_P1;PMS_P2;Temp;Humidity;BMP_temperature;BMP_pressure;BME280_temperature;BME280_humidity;BME280_pressure;Samples;Min_cycle;Max_cycle;Signal;HPM_P1;HPM_P2
2022/03/27 03:27:30;;;;;;;;;41.00;32.75;;;;;13.75;42.18;101942.31;4762968;29;45700;-92
2022/03/27 03:30:05;;;;;;;;;36.50;30.50;;;;;13.71;42.29;101937.34;4784750;29;45774;-92
2022/03/27 03:32:31;;;;;;;;;37.50;35.50;;;;;13.70;42.85;101943.56;4773195;29;46533;-90
2022/03/27 03:34:57;;;;;;;;;41.25;33.00;;;;;13.66;43.05;101942.03;4763351;29;48838;-89
2022/03/27 03:37:25;;;;;;;;;38.25;33.00;;;;;13.68;42.58;101941.00;4759827;29;48004;-89
2022/03/27 03:40:09;;;;;;;;;40.50;34.50;;;;;13.65;42.41;101946.47;4789998;29;45742;-91
2022/03/27 03:42:38;;;;;;;;;30.75;28.25;;;;;13.63;42.81;101943.09;4755352;29;45657;-90
2022/03/27 03:45:06;;;;;;;;;40.00;33.75;;;;;13.62;42.83;101940.53;4771434;29;48418;-90
2022/03/27 03:47:50;;;;;;;;;;;;;;;;;;;;;
2022/03/27 03:50:26;;;;;;;;;34.50;31.00;;;;;13.48;43.25;101928.25;4791038;29;72500;-90
2022/03/27 03:52:52;;;;;;;;;42.00;36.00;;;;;13.52;43.23;101936.78;4773873;29;45944;-91
2022/03/27 03:55:18;;;;;;;;;39.75;32.75;;;;;13.47;43.56;101934.44;4787220;29;48518;-90
2022/03/27 03:57:44;;;;;;;;;36.50;30.50;;;;;13.49;43.32;101950.16;4788105;29;46770;-91
2022/03/27 04:00:10;;;;;;;;;30.75;27.00;;;;;13.47;43.32;101946.75;4773367;29;45690;-89
2022/03/27 04:02:36;;;;;;;;;42.25;32.25;;;;;13.36;43.36;101931.63;4773304;29;45862;-90
2022/03/27 04:05:01;;;;;;;;;38.25;34.00;;;;;13.40;43.40;101936.59;4756910;29;47480;-92
2022/03/27 04:07:27;;;;;;;;;42.75;33.75;;;;;13.40;43.63;101935.75;4767023;29;48486;-91
2022/03/27 04:09:52;;;;;;;;;46.00;29.00;;;;;13.39;43.73;101945.44;4784930;29;46274;-91
2022/03/27 04:12:18;;;;;;;;;39.00;31.50;;;;;13.33;43.43;101932.66;4772248;29;45621;-88
2022/03/27 04:14:44;;;;;;;;;34.25;31.00;;;;;13.39;43.50;101944.59;4792859;29;46547;-91
2022/03/27 04:17:09;;;;;;;;;38.50;32.00;;;;;13.36;43.78;101942.16;4791919;29;46188;-90
2022/03/27 04:19:46;;;;;;;;;33.25;30.75;;;;;13.36;43.51;101945.63;4790238;29;45871;-89
2022/03/27 04:22:12;;;;;;;;;31.25;30.25;;;;;13.29;43.74;101938.19;4774855;29;46073;-91
2022/03/27 04:24:38;;;;;;;;;29.25;26.00;;;;;13.33;43.84;101943.16;4778982;29;47178;-88
2022/03/27 04:27:03;;;;;;;;;34.25;28.25;;;;;13.29;43.88;101935.56;4779817;29;46983;-90
2022/03/27 04:29:29;;;;;;;;;37.25;32.50;;;;;13.32;43.64;101952.03;4788040;29;45700;-89
2022/03/27 04:31:54;;;;;;;;;32.50;27.50;;;;;13.30;43.98;101947.78;4778691;29;45958;-88
2022/03/27 04:34:20;;;;;;;;;32.25;29.00;;;;;13.25;43.76;101940.19;4775614;29;47619;-90
2022/03/27 04:36:46;;;;;;;;;33.75;30.25;;;;;13.20;43.73;101944.88;4784912;29;46259;-90
2022/03/27 04:39:11;;;;;;;;;32.75;27.75;;;;;13.28;44.33;101958.41;4768305;29;45674;-91
2022/03/27 04:41:37;;;;;;;;;35.75;29.75;;;;;13.23;44.11;101949.09;4767542;29;45786;-90
2022/03/27 04:44:04;;;;;;;;;43.00;33.50;;;;;13.23;43.96;101949.94;4788839;29;45862;-90
2022/03/27 04:46:29;;;;;;;;;29.25;26.00;;;;;13.22;43.78;101956.16;4787525;29;47178;-90
2022/03/27 04:48:55;;;;;;;;;34.75;30.50;;;;;13.22;44.27;101950.91;4787306;29;45669;-89
2022/03/27 04:51:36;;;;;;;;;35.00;30.75;;;;;13.24;44.04;101963.94;4778322;29;45891;-90
2022/03/27 04:54:01;;;;;;;;;32.00;27.75;;;;;13.16;44.19;101940.75;4768216;29;48851;-90
2022/03/27 04:56:27;;;;;;;;;39.75;32.00;;;;;13.21;44.26;101959.72;4782439;29;47070;-90
2022/03/27 04:58:53;;;;;;;;;33.75;30.75;;;;;13.20;44.46;101951.91;4767640;29;45593;-92
2022/03/27 05:01:21;;;;;;;;;34.25;28.50;;;;;13.18;44.30;101962.53;4780706;29;46269;-91
2022/03/27 05:03:47;;;;;;;;;33.25;28.00;;;;;13.12;44.36;101956.81;4768240;29;47037;-90
2022/03/27 05:06:13;;;;;;;;;39.00;29.25;;;;;13.15;44.23;101960.09;4795624;29;47104;-90
2022/03/27 05:08:40;;;;;;;;;29.00;26.00;;;;;13.08;44.57;101955.25;4791493;29;46113;-90
2022/03/27 05:11:06;;;;;;;;;33.00;29.25;;;;;13.11;44.10;101961.19;4793708;29;46450;-90
2022/03/27 05:13:31;;;;;;;;;31.00;28.75;;;;;13.03;44.55;101963.41;4778438;29;47150;-91
2022/03/27 05:15:57;;;;;;;;;31.00;27.25;;;;;13.11;44.45;101976.13;4792607;29;47144;-93
2022/03/27 05:18:23;;;;;;;;;31.25;24.25;;;;;13.06;44.30;101970.31;4789759;29;45598;-92
2022/03/27 05:20:48;;;;;;;;;32.25;26.75;;;;;13.07;44.81;101971.97;4777316;29;45659;-91
2022/03/27 05:23:14;;;;;;;;;34.25;29.00;;;;;13.04;44.41;101971.22;4768716;29;48124;-89
2022/03/27 05:25:40;;;;;;;;;39.00;30.75;;;;;12.99;44.86;101960.13;4764072;29;46976;-90
2022/03/27 05:28:08;;;;;;;;;35.00;28.50;;;;;12.96;44.59;101968.19;4765486;29;45713;-90
2022/03/27 05:30:35;;;;;;;;;33.25;28.75;;;;;12.96;44.78;101973.47;4775028;29;45629;-88
2022/03/27 05:33:03;;;;;;;;;31.50;27.25;;;;;12.99;44.66;101969.81;4772184;29;48729;-90
2022/03/27 05:35:29;;;;;;;;;35.25;28.25;;;;;13.02;44.67;101975.72;4773075;29;47601;-91
2022/03/27 05:37:54;;;;;;;;;38.25;31.75;;;;;13.00;44.42;101976.78;4769112;29;45652;-88
2022/03/27 05:40:22;;;;;;;;;31.75;25.75;;;;;12.95;44.79;101971.78;4776037;29;45540;-88
2022/03/27 05:42:48;;;;;;;;;32.00;28.50;;;;;12.93;44.83;101967.53;4766851;29;47954;-88
2022/03/27 05:45:14;;;;;;;;;36.75;32.25;;;;;12.97;44.72;101985.69;4774199;29;47082;-88
2022/03/27 05:47:43;;;;;;;;;31.25;27.50;;;;;12.96;45.32;101980.50;4786768;29;45708;-88
2022/03/27 05:50:16;;;;;;;;;33.00;25.50;;;;;12.95;45.02;101991.97;4786265;29;45976;-88
2022/03/27 05:52:42;;;;;;;;;33.75;28.00;;;;;12.92;44.98;101977.22;4787607;29;45746;-88
2022/03/27 05:55:09;;;;;;;;;36.50;27.75;;;;;12.92;44.80;101987.75;4786549;29;47969;-88
2022/03/27 05:57:34;;;;;;;;;37.75;31.75;;;;;12.91;45.15;101988.66;4773823;29;45626;-86
2022/03/27 06:00:00;;;;;;;;;30.00;24.00;;;;;12.89;45.09;101981.81;4776428;29;45651;-86
2022/03/27 06:02:26;;;;;;;;;33.00;27.00;;;;;12.85;44.89;101977.66;4780407;29;46566;-86
2022/03/27 06:05:00;;;;;;;;;33.50;28.75;;;;;12.85;45.26;101985.53;4787336;29;45778;-88
2022/03/27 06:07:26;;;;;;;;;28.75;24.00;;;;;12.85;45.15;101986.38;4773357;29;45657;-90
2022/03/27 06:09:51;;;;;;;;;34.00;26.25;;;;;12.88;45.34;102002.00;4772463;29;45901;-87
2022/03/27 06:12:17;;;;;;;;;30.75;26.25;;;;;12.84;45.48;101987.34;4772875;29;47814;-88
2022/03/27 06:14:43;;;;;;;;;34.50;29.50;;;;;12.85;45.70;101999.53;4774081;29;48000;-88
2022/03/27 06:17:09;;;;;;;;;35.25;30.50;;;;;12.79;45.66;101993.81;4769166;29;45746;-88
2022/03/27 06:19:34;;;;;;;;;33.75;29.00;;;;;12.84;45.37;101997.88;4787490;29;45782;-88
2022/03/27 06:22:00;;;;;;;;;37.25;32.00;;;;;12.78;45.15;101998.22;4770640;29;47264;-88
2022/03/27 06:24:26;;;;;;;;;37.00;29.00;;;;;12.84;46.00;102003.13;4786941;29;45866;-89
2022/03/27 06:26:52;;;;;;;;;28.00;24.00;;;;;12.80;45.54;101996.34;4765716;29;46097;-88
2022/03/27 06:29:21;;;;;;;;;33.75;30.75;;;;;12.78;45.84;101987.72;4757022;29;45883;-91
2022/03/27 06:31:48;;;;;;;;;31.25;28.75;;;;;12.83;45.44;102005.84;4742943;29;47638;-88
2022/03/27 06:34:13;;;;;;;;;37.50;29.25;;;;;12.83;45.48;101998.81;4748175;29;47173;-91
2022/03/27 06:36:41;;;;;;;;;24.50;22.75;;;;;12.85;45.48;102007.44;4775024;29;46504;-88
2022/03/27 06:39:07;;;;;;;;;32.00;26.50;;;;;12.84;45.58;102005.75;4753451;29;45722;-88
2022/03/27 06:41:32;;;;;;;;;37.50;32.50;;;;;12.88;45.43;102007.28;4767886;29;46587;-88
2022/03/27 06:43:58;;;;;;;;;34.25;29.00;;;;;12.81;45.79;101998.03;4774747;29;45642;-87
2022/03/27 06:46:24;;;;;;;;;36.25;31.75;;;;;12.86;45.69;102009.13;4758610;29;45609;-87
2022/03/27 06:48:50;;;;;;;;;39.50;34.00;;;;;12.87;45.71;102009.97;4771255;29;45674;-89
2022/03/27 06:51:16;;;;;;;;;27.25;24.50;;;;;12.88;45.51;102007.28;4768234;29;48916;-90
2022/03/27 06:53:44;;;;;;;;;31.50;25.50;;;;;12.87;45.62;101997.69;4768892;29;47122;-88
2022/03/27 06:56:10;;;;;;;;;36.50;28.75;;;;;12.85;45.89;101999.53;4764283;29;45888;-77
2022/03/27 06:58:36;;;;;;;;;38.00;30.00;;;;;12.90;45.69;102010.63;4754674;29;45977;-78
2022/03/27 07:03:45;;;;;;;;;33.25;29.50;;;;;12.93;45.57;102002.59;4749292;29;46142;-78
2022/03/27 07:06:13;;;;;;;;;38.25;29.75;;;;;12.93;45.55;102007.00;4767884;29;45788;-78
2022/03/27 07:08:38;;;;;;;;;38.25;33.50;;;;;12.96;45.73;102009.44;4756582;29;45694;-79
2022/03/27 07:11:03;;;;;;;;;32.25;29.00;;;;;12.96;45.55;102012.06;4766143;29;45657;-77
2022/03/27 07:13:30;;;;;;;;;37.75;33.50;;;;;12.94;45.72;102009.56;4765974;29;45693;-77
2022/03/27 07:15:56;;;;;;;;;35.25;30.50;;;;;12.97;45.72;102005.88;4766721;29;46075;-77
2022/03/27 07:18:22;;;;;;;;;32.00;25.25;;;;;12.98;45.36;102007.56;4765519;29;45608;-76
2022/03/27 07:20:48;;;;;;;;;29.00;29.00;;;;;12.98;45.75;102013.69;4753014;29;46374;-77
2022/03/27 07:23:16;;;;;;;;;33.50;28.00;;;;;13.01;45.52;102015.28;4732974;29;46234;-76
2022/03/27 07:25:45;;;;;;;;;32.00;28.00;;;;;13.02;45.65;102015.19;4751818;29;45852;-78
2022/03/27 07:28:13;;;;;;;;;33.25;27.25;;;;;13.05;45.57;102016.81;4774477;29;45668;-76
2022/03/27 07:30:41;;;;;;;;;34.50;28.50;;;;;13.06;45.44;102020.28;4768209;29;47709;-76
2022/03/27 07:33:07;;;;;;;;;31.50;23.75;;;;;13.07;45.52;102014.91;4776167;29;45997;-76
2022/03/27 07:35:32;;;;;;;;;35.75;32.25;;;;;13.08;45.39;102021.88;4770034;29;45737;-77
2022/03/27 07:37:58;;;;;;;;;38.00;31.25;;;;;13.08;45.60;102023.66;4767065;29;45665;-77
2022/03/27 07:40:24;;;;;;;;;34.50;33.25;;;;;13.07;45.74;102011.44;4766635;29;46455;-79
2022/03/27 07:42:51;;;;;;;;;39.25;32.00;;;;;13.08;45.84;102026.28;4777046;29;45823;-75
2022/03/27 07:45:19;;;;;;;;;35.75;29.50;;;;;13.06;45.56;102012.41;4760015;29;45833;-80
2022/03/27 07:47:45;;;;;;;;;36.50;30.75;;;;;13.11;45.37;102031.41;4744776;29;45809;-77
2022/03/27 07:50:11;;;;;;;;;35.50;32.25;;;;;13.11;45.45;102026.97;4781851;29;45760;-77
2022/03/27 07:52:38;;;;;;;;;28.25;25.00;;;;;13.12;45.72;102017.34;4774697;29;46057;-78
2022/03/27 07:55:05;;;;;;;;;34.00;30.25;;;;;13.13;45.75;102022.50;4771995;29;46048;-77
2022/03/27 07:57:31;;;;;;;;;32.50;28.00;;;;;13.16;45.57;102021.47;4784378;29;45571;-78
2022/03/27 07:59:56;;;;;;;;;34.75;31.75;;;;;13.17;45.39;102026.63;4755100;29;47833;-77
2022/03/27 08:02:22;;;;;;;;;32.50;27.50;;;;;13.21;45.55;102027.31;4774949;29;46072;-78
2022/03/27 08:04:48;;;;;;;;;38.50;30.50;;;;;13.24;45.33;102032.38;4768565;29;45952;-76
2022/03/27 08:07:14;;;;;;;;;47.25;35.75;;;;;13.27;45.37;102027.81;4784457;29;45820;-78
2022/03/27 08:09:41;;;;;;;;;37.25;31.50;;;;;13.28;45.62;102032.09;4771620;29;45710;-80
2022/03/27 08:12:08;;;;;;;;;33.50;30.75;;;;;13.31;45.57;102029.31;4784047;29;46676;-80
2022/03/27 08:14:37;;;;;;;;;34.50;31.50;;;;;13.34;45.35;102025.63;4778797;29;45700;-81
2022/03/27 08:17:03;;;;;;;;;40.50;34.00;;;;;13.36;45.67;102029.03;4776438;29;46902;-81
2022/03/27 08:19:29;;;;;;;;;37.00;31.00;;;;;13.39;45.35;102027.03;4771388;29;45700;-81
2022/03/27 08:21:55;;;;;;;;;36.50;32.50;;;;;13.43;45.35;102025.94;4764784;29;46133;-84
2022/03/27 08:24:21;;;;;;;;;38.75;32.00;;;;;13.47;45.07;102023.09;4779674;29;45802;-85
2022/03/27 08:26:56;;;;;;;;;35.00;30.25;;;;;13.45;45.08;102018.78;4775612;29;45817;-83
2022/03/27 08:29:26;;;;;;;;;35.50;28.00;;;;;13.55;44.73;102029.59;4785071;29;48632;-82
2022/03/27 08:31:52;;;;;;;;;31.00;27.25;;;;;13.58;44.59;102029.44;4787730;29;46340;-82
2022/03/27 08:34:19;;;;;;;;;35.50;28.00;;;;;13.60;45.08;102026.72;4778608;29;45715;-81
2022/03/27 08:36:47;;;;;;;;;35.25;31.75;;;;;13.66;44.67;102027.16;4786989;29;46047;-82
2022/03/27 08:39:13;;;;;;;;;30.25;27.25;;;;;13.70;44.80;102019.94;4769816;29;45629;-82
2022/03/27 08:41:43;;;;;;;;;32.25;27.25;;;;;13.76;44.66;102023.03;4752734;29;47133;-82
2022/03/27 08:44:15;;;;;;;;;30.75;29.25;;;;;13.82;44.35;102020.00;4777108;29;45980;-83
2022/03/27 08:46:42;;;;;;;;;28.75;26.25;;;;;13.90;44.27;102023.97;4774631;29;45790;-79
2022/03/27 08:49:57;;;;;;;;;34.75;30.00;;;;;13.98;43.98;102032.25;4780781;29;45855;-79
2022/03/27 08:52:39;;;;;;;;;29.75;25.75;;;;;14.03;44.01;102014.34;4712642;30;46385;-78
2022/03/27 08:55:07;;;;;;;;;36.00;27.50;;;;;14.05;43.79;102015.94;4712578;30;45708;-78
2022/03/27 08:57:54;;;;;;;;;31.00;26.50;;;;;14.13;43.75;102023.38;4713224;30;45746;-77
2022/03/27 09:00:21;;;;;;;;;34.75;31.25;;;;;14.18;43.66;102027.41;4712976;30;45769;-77
2022/03/27 09:02:47;;;;;;;;;31.25;28.25;;;;;14.22;43.33;102028.91;4712653;30;46817;-76
2022/03/27 09:05:13;;;;;;;;;31.25;26.00;;;;;14.26;43.51;102027.75;4713061;30;46240;-80
2022/03/27 09:07:38;;;;;;;;;36.25;28.50;;;;;14.31;43.25;102027.44;4713217;30;45880;-79
2022/03/27 09:10:08;;;;;;;;;28.75;24.25;;;;;14.33;43.07;102036.13;4712244;30;46127;-76
2022/03/27 09:12:35;;;;;;;;;32.50;29.50;;;;;14.38;42.91;102030.59;4697916;30;46272;-78
2022/03/27 09:15:01;;;;;;;;;35.00;29.25;;;;;14.43;42.84;102034.63;4697750;30;45855;-77
2022/03/27 09:17:27;;;;;;;;;27.75;22.25;;;;;14.48;42.57;102037.81;4713261;30;45820;-77
2022/03/27 09:19:52;;;;;;;;;36.25;27.00;;;;;14.53;42.59;102037.50;4713103;30;46557;-77
2022/03/27 09:22:21;;;;;;;;;29.00;25.50;;;;;14.56;42.13;102045.22;4712621;30;45935;-77
2022/03/27 09:24:57;;;;;;;;;32.25;29.00;;;;;14.60;42.65;102044.09;4712742;30;45765;-76
2022/03/27 09:27:30;;;;;;;;;29.25;27.50;;;;;14.64;42.22;102035.00;4709963;30;45992;-77
2022/03/27 09:30:11;;;;;;;;;28.25;25.25;;;;;14.70;42.55;102029.34;4756125;29;46583;-80
2022/03/27 09:32:42;;;;;;;;;32.00;29.00;;;;;14.76;42.34;102036.84;4770112;29;46046;-79
2022/03/27 09:35:09;;;;;;;;;38.75;27.50;;;;;14.81;42.06;102033.91;4768926;29;46009;-79
2022/03/27 09:37:41;;;;;;;;;28.25;25.00;;;;;14.86;41.76;102035.31;4784846;29;45780;-78
2022/03/27 09:40:08;;;;;;;;;33.50;31.75;;;;;14.91;41.75;102032.34;4778608;29;45742;-77
2022/03/27 09:42:37;;;;;;;;;29.75;27.75;;;;;14.96;41.58;102036.38;4784396;29;45856;-79
2022/03/27 09:45:12;;;;;;;;;31.50;27.50;;;;;15.03;41.75;102036.81;4782798;29;45786;-80
2022/03/27 09:47:38;;;;;;;;;34.50;30.50;;;;;15.07;41.45;102025.09;4788749;29;45682;-81
2022/03/27 09:50:04;;;;;;;;;34.75;28.25;;;;;15.16;41.48;102042.13;4786031;29;46437;-77
2022/03/27 09:52:30;;;;;;;;;30.75;28.25;;;;;15.21;41.17;102032.09;4781468;29;46084;-79
2022/03/27 09:54:58;;;;;;;;;31.25;29.00;;;;;15.25;41.33;102030.94;4793322;29;45619;-82
2022/03/27 09:57:32;;;;;;;;;34.50;30.00;;;;;15.31;41.29;102033.16;4771461;29;45659;-80
2022/03/27 10:00:15;;;;;;;;;35.75;32.75;;;;;15.36;41.06;102026.63;4778467;29;46533;-81
2022/03/27 10:02:42;;;;;;;;;32.50;28.00;;;;;15.41;40.98;102031.59;4788683;29;46355;-80
2022/03/27 10:05:12;;;;;;;;;30.00;27.00;;;;;15.45;41.00;102031.28;4789309;29;45964;-84
2022/03/27 10:07:41;;;;;;;;;34.00;27.25;;;;;15.50;41.20;102028.31;4775991;29;45551;-81
2022/03/27 10:10:12;;;;;;;;;32.75;30.25;;;;;15.52;40.85;102018.53;4786309;29;45730;-86
2022/03/27 10:12:39;;;;;;;;;40.75;30.75;;;;;15.59;40.65;102016.31;4780092;29;47114;-81
2022/03/27 10:15:08;;;;;;;;;33.50;27.75;;;;;15.64;40.61;102019.47;4770478;29;45918;-80
2022/03/27 10:17:36;;;;;;;;;30.50;30.00;;;;;15.69;40.95;102020.00;4782479;29;45829;-81
2022/03/27 10:20:06;;;;;;;;;40.00;30.75;;;;;15.76;40.92;102018.63;4786241;29;45877;-83
2022/03/27 10:22:37;;;;;;;;;35.50;32.50;;;;;15.80;40.78;102014.81;4783993;29;46156;-84
2022/03/27 10:25:04;;;;;;;;;32.00;27.75;;;;;15.86;40.71;102009.09;4772543;29;45958;-82
2022/03/27 10:27:31;;;;;;;;;38.50;31.00;;;;;15.87;40.65;102014.25;4766770;29;45928;-79
2022/03/27 10:29:58;;;;;;;;;36.25;30.50;;;;;15.92;40.19;102004.19;4785918;29;46049;-79
2022/03/27 10:32:24;;;;;;;;;35.25;30.50;;;;;15.97;40.23;101993.31;4769260;29;46177;-80
2022/03/27 10:35:21;;;;;;;;;32.50;27.00;;;;;16.06;40.05;102003.22;4780704;29;46083;-79
2022/03/27 10:37:53;;;;;;;;;32.50;29.75;;;;;16.11;39.95;102000.25;4758836;29;45664;-78
2022/03/27 10:40:45;;;;;;;;;33.75;29.50;;;;;16.11;39.86;101993.16;4783656;29;46460;-80
2022/03/27 10:43:31;;;;;;;;;36.25;31.75;;;;;16.19;39.83;101993.47;4762617;29;47770;-80
2022/03/27 10:46:15;;;;;;;;;33.25;30.00;;;;;16.25;40.07;101990.34;4777732;29;45916;-80
2022/03/27 10:48:42;;;;;;;;;36.00;31.75;;;;;16.30;40.14;101993.50;4782279;29;45673;-83
2022/03/27 10:51:10;;;;;;;;;37.25;33.00;;;;;16.34;39.68;101980.91;4779193;29;46407;-81
2022/03/27 10:53:36;;;;;;;;;32.25;28.00;;;;;16.41;39.27;101982.13;4787108;29;46301;-87
2022/03/27 10:56:03;;;;;;;;;32.75;30.00;;;;;16.48;39.59;101974.59;4775418;29;45739;-87
2022/03/27 10:58:36;;;;;;;;;32.00;30.00;;;;;16.53;39.24;101975.94;4755682;29;45984;-81
2022/03/27 11:01:05;;;;;;;;;40.25;32.75;;;;;16.59;38.92;101967.56;4785202;29;46448;-81
2022/03/27 11:04:04;;;;;;;;;38.00;31.50;;;;;16.68;38.98;101972.19;4784269;29;45742;-82
2022/03/27 11:06:32;;;;;;;;;37.25;31.75;;;;;16.72;38.80;101976.31;4711520;29;45797;-83
2022/03/27 11:09:00;;;;;;;;;35.50;31.75;;;;;16.79;38.46;101974.88;4697040;30;45843;-85
2022/03/27 11:11:49;;;;;;;;;31.50;28.75;;;;;16.87;38.33;101966.34;4692343;30;46552;-86
2022/03/27 11:14:23;;;;;;;;;29.75;26.25;;;;;16.89;38.18;101953.84;4674211;30;47372;-80
2022/03/27 11:17:06;;;;;;;;;30.00;25.25;;;;;17.00;38.27;101968.94;4711360;30;45715;-80
2022/03/27 11:19:46;;;;;;;;;30.75;28.75;;;;;17.06;37.45;101958.69;4694911;30;46479;-85
2022/03/27 11:22:40;;;;;;;;;32.50;28.75;;;;;17.12;37.98;101963.50;4685661;30;45848;-81
2022/03/27 11:25:28;;;;;;;;;36.50;32.25;;;;;17.18;37.75;101955.09;4702783;30;46331;-81
2022/03/27 11:27:55;;;;;;;;;35.25;32.25;;;;;17.23;37.71;101954.72;4695549;30;45971;-84
2022/03/27 11:30:20;;;;;;;;;32.25;30.00;;;;;17.29;37.39;101948.97;4711529;30;46001;-78
2022/03/27 11:33:14;;;;;;;;;34.00;31.00;;;;;17.37;37.49;101949.22;4699881;30;47213;-79
2022/03/27 11:35:42;;;;;;;;;41.00;30.25;;;;;17.44;37.26;101946.91;4707834;30;46762;-80
2022/03/27 11:38:21;;;;;;;;;23.75;21.00;;;;;17.49;37.02;101956.19;4705292;30;46018;-78
2022/03/27 11:40:47;;;;;;;;;30.50;27.75;;;;;17.53;36.09;101955.00;4684502;30;45716;-81
2022/03/27 11:43:32;;;;;;;;;37.00;33.00;;;;;17.58;36.23;101941.38;4779197;29;45761;-82
2022/03/27 11:45:59;;;;;;;;;39.75;33.00;;;;;17.65;36.30;101941.78;4776090;29;46191;-82
2022/03/27 11:48:26;;;;;;;;;34.75;29.50;;;;;17.73;36.18;101944.66;4772489;29;45911;-79
2022/03/27 11:50:54;;;;;;;;;38.25;32.00;;;;;17.81;36.64;101944.91;4778796;29;45546;-80
2022/03/27 11:53:33;;;;;;;;;35.00;32.00;;;;;17.89;36.15;101942.47;4763036;29;46977;-79
2022/03/27 11:56:10;;;;;;;;;32.75;25.50;;;;;17.95;35.93;101936.66;4766476;29;46155;-78
2022/03/27 11:58:36;;;;;;;;;33.25;30.25;;;;;18.04;36.02;101938.56;4782051;29;45933;-81
2022/03/27 12:01:08;;;;;;;;;39.25;33.75;;;;;18.11;36.13;101933.59;4784376;29;45728;-80
2022/03/27 12:03:35;;;;;;;;;32.00;29.50;;;;;18.18;34.93;101930.34;4780339;29;45653;-81
2022/03/27 12:06:06;;;;;;;;;31.25;27.25;;;;;18.25;34.85;101936.81;4772017;29;46547;-79
2022/03/27 12:08:36;;;;;;;;;34.00;29.50;;;;;18.30;34.83;101926.66;4780813;29;45960;-79
2022/03/27 12:11:06;;;;;;;;;31.75;28.00;;;;;18.37;34.57;101927.84;4783424;29;46114;-79
2022/03/27 12:13:36;;;;;;;;;35.00;28.50;;;;;18.46;34.82;101927.06;4783517;29;45707;-79
2022/03/27 12:16:02;;;;;;;;;37.50;31.00;;;;;18.55;34.72;101922.00;4774631;29;47596;-79
2022/03/27 12:18:33;;;;;;;;;38.25;31.75;;;;;18.60;34.16;101933.94;4767374;29;45691;-77
2022/03/27 12:21:07;;;;;;;;;36.25;31.00;;;;;18.65;34.46;101921.13;4781062;29;46124;-78
2022/03/27 12:23:37;;;;;;;;;31.75;27.75;;;;;18.72;34.04;101924.94;4773798;29;45781;-77
2022/03/27 12:29:40;;;;;;;;;42.00;31.25;;;;;18.79;34.21;101919.94;4769961;29;46183;-76
2022/03/27 12:32:12;;;;;;;;;36.75;29.75;;;;;18.91;33.26;101918.91;4772797;29;45848;-77
2022/03/27 12:34:43;;;;;;;;;35.00;25.00;;;;;18.97;33.01;101917.53;4757605;29;46983;-78
2022/03/27 12:37:15;;;;;;;;;29.25;25.25;;;;;19.05;32.10;101909.78;4782124;29;46139;-78
2022/03/27 12:40:01;;;;;;;;;32.25;28.00;;;;;19.12;31.55;101906.44;4766549;29;45824;-81
2022/03/27 12:42:32;;;;;;;;;30.00;26.50;;;;;19.21;31.42;101913.63;4772782;29;45895;-77
2022/03/27 12:45:21;;;;;;;;;27.75;25.75;;;;;19.27;31.02;101907.75;4771805;29;45748;-78
2022/03/27 12:47:55;;;;;;;;;35.75;29.25;;;;;19.33;31.17;101909.03;4766589;29;46641;-78
2022/03/27 12:50:33;;;;;;;;;31.25;26.75;;;;;19.35;30.68;101891.16;4780188;29;45619;-80
2022/03/27 12:53:04;;;;;;;;;33.50;27.75;;;;;19.44;31.10;101889.50;4783410;29;45971;-79
2022/03/27 12:55:45;;;;;;;;;30.50;23.50;;;;;19.47;30.96;101895.44;4770693;29;46501;-79
2022/03/27 12:58:12;;;;;;;;;29.75;29.00;;;;;19.56;31.28;101888.44;4779067;29;47112;-80
2022/03/27 13:00:40;;;;;;;;;29.75;27.75;;;;;19.60;30.37;101882.72;4778336;29;46835;-80
2022/03/27 13:03:13;;;;;;;;;34.00;28.00;;;;;19.64;30.11;101888.63;4779090;29;45688;-79
2022/03/27 13:05:41;;;;;;;;;33.25;25.25;;;;;19.70;30.56;101888.91;4783861;29;46916;-79
2022/03/27 13:08:08;;;;;;;;;28.25;25.00;;;;;19.74;30.40;101881.50;4782899;29;46262;-80
2022/03/27 13:10:37;;;;;;;;;33.25;30.50;;;;;19.81;30.07;101877.28;4780646;29;45527;-81
2022/03/27 13:13:08;;;;;;;;;31.50;26.50;;;;;19.88;30.01;101877.59;4783057;29;45735;-81
2022/03/27 13:15:48;;;;;;;;;30.25;25.50;;;;;19.91;30.13;101877.34;4778003;29;46166;-80
2022/03/27 13:18:17;;;;;;;;;31.25;28.50;;;;;19.96;29.13;101864.47;4776210;29;45658;-80
2022/03/27 13:20:45;;;;;;;;;27.50;26.00;;;;;20.00;29.80;101861.38;4768312;29;45963;-81
2022/03/27 13:23:10;;;;;;;;;32.75;28.00;;;;;20.06;29.74;101873.28;4781731;29;46085;-80
2022/03/27 13:25:37;;;;;;;;;31.25;28.75;;;;;20.08;28.91;101864.16;4774271;29;45730;-80
2022/03/27 13:28:08;;;;;;;;;25.25;23.50;;;;;20.13;29.06;101867.25;4775632;29;45874;-79
2022/03/27 13:30:34;;;;;;;;;31.50;26.00;;;;;20.18;29.30;101866.84;4777688;29;45936;-79
2022/03/27 13:33:01;;;;;;;;;32.00;25.25;;;;;20.27;28.70;101862.50;4782184;29;45826;-79
2022/03/27 13:35:28;;;;;;;;;30.00;24.50;;;;;20.32;29.00;101861.13;4768909;29;46682;-80
2022/03/27 13:37:54;;;;;;;;;29.25;26.50;;;;;20.37;29.24;101861.53;4775857;29;46310;-80
2022/03/27 13:40:21;;;;;;;;;30.75;27.00;;;;;20.46;28.84;101855.34;4775725;29;45830;-79
2022/03/27 13:42:59;;;;;;;;;34.75;31.25;;;;;20.50;28.63;101855.91;4781185;29;45815;-80
2022/03/27 13:45:29;;;;;;;;;25.00;22.50;;;;;20.56;28.63;101855.34;4770630;29;46244;-80
2022/03/27 13:47:55;;;;;;;;;32.25;28.00;;;;;20.58;28.53;101845.38;4768476;29;46225;-83
2022/03/27 13:50:23;;;;;;;;;33.50;29.75;;;;;20.60;28.52;101843.41;4785170;29;45709;-85
2022/03/27 13:52:48;;;;;;;;;30.75;27.75;;;;;20.59;28.10;101836.41;4775399;29;46175;-78
2022/03/27 13:55:13;;;;;;;;;31.75;26.50;;;;;20.64;28.24;101835.97;4789344;29;46418;-78
2022/03/27 13:57:39;;;;;;;;;32.25;28.00;;;;;20.68;28.39;101834.69;4794365;29;45709;-79
2022/03/27 14:00:05;;;;;;;;;29.50;28.00;;;;;20.71;28.47;101834.41;4787527;29;45681;-81
2022/03/27 14:02:31;;;;;;;;;29.25;25.25;;;;;20.75;28.53;101828.66;4786000;29;45848;-80
2022/03/27 14:04:57;;;;;;;;;32.75;25.50;;;;;20.76;28.69;101822.34;4775018;29;45498;-82
2022/03/27 14:07:23;;;;;;;;;28.00;23.50;;;;;20.86;28.38;101824.97;4768513;29;45907;-81
2022/03/27 14:09:49;;;;;;;;;30.25;25.00;;;;;20.91;28.45;101825.38;4780942;29;46133;-83
2022/03/27 14:12:14;;;;;;;;;30.25;28.25;;;;;20.95;27.60;101819.59;4785919;29;45715;-80
2022/03/27 14:14:40;;;;;;;;;29.25;25.25;;;;;20.99;27.52;101819.31;4781465;29;45596;-83
2022/03/27 14:17:07;;;;;;;;;28.50;25.25;;;;;21.00;27.77;101815.69;4776488;29;45741;-80
2022/03/27 14:19:33;;;;;;;;;30.50;26.75;;;;;21.07;27.63;101808.75;4775279;29;45898;-81
2022/03/27 14:22:01;;;;;;;;;30.75;25.25;;;;;21.09;27.92;101804.13;4778226;29;46057;-81
2022/03/27 14:24:26;;;;;;;;;23.75;19.50;;;;;21.14;27.48;101802.72;4779617;29;46497;-79
2022/03/27 14:26:52;;;;;;;;;34.50;30.25;;;;;21.18;27.27;101805.94;4785670;29;46982;-79
2022/03/27 14:29:17;;;;;;;;;31.00;25.50;;;;;21.19;27.50;101796.94;4785095;29;45958;-78
2022/03/27 14:31:42;;;;;;;;;30.75;26.75;;;;;21.22;28.33;101801.97;4784133;29;45812;-79
2022/03/27 14:34:08;;;;;;;;;26.25;22.75;;;;;21.25;28.13;101799.88;4785780;29;46439;-77
2022/03/27 14:36:33;;;;;;;;;31.50;26.50;;;;;21.30;28.08;101794.06;4775483;29;46099;-78
2022/03/27 14:38:59;;;;;;;;;31.00;28.00;;;;;21.30;27.73;101794.91;4784147;29;45613;-78
2022/03/27 14:41:24;;;;;;;;;35.75;31.00;;;;;21.29;28.06;101789.72;4785927;29;45998;-78
2022/03/27 14:43:50;;;;;;;;;33.50;27.50;;;;;21.36;28.06;101788.16;4783600;29;46419;-79
2022/03/27 14:46:16;;;;;;;;;27.00;24.25;;;;;21.39;28.14;101779.84;4776295;29;46010;-78
2022/03/27 14:48:42;;;;;;;;;35.50;28.25;;;;;21.42;27.95;101787.56;4783523;29;45698;-78
2022/03/27 14:51:08;;;;;;;;;27.00;24.00;;;;;21.47;27.82;101785.28;4785492;29;45687;-79